Time;durP1;ratioP1;P1;durP2;ratioP2;P2;SDS_P1;SDS_P2;PMS_P1;PMS_P2;Temp;Humidity;BMP_temperature;BMP_pressure;BME280_temperature;BME280_humidity;BME280_pressure;Samples;Min_cycle;Max_cycle;Signal;HPM_P1;HPM_P2
2023/01/13 00:01:51;;;;;;;7.10;1.27;;;28.80;99.90;;;;;;4974424;28;20180;-72
2023/01/13 00:04:19;;;;;;;3.60;1.17;;;29.10;99.90;;;;;;4973452;28;20227;-72
2023/01/13 00:06:46;;;;;;;4.83;1.60;;;29.80;99.90;;;;;;4974441;28;20183;-68
2023/01/13 00:09:13;;;;;;;7.13;1.50;;;29.80;99.90;;;;;;4973991;28;20198;-69
2023/01/13 00:11:41;;;;;;;5.03;1.00;;;29.10;99.90;;;;;;4973588;28;20287;-68
2023/01/13 00:14:08;;;;;;;6.57;1.10;;;28.70;99.90;;;;;;4974211;28;20557;-75
2023/01/13 00:16:37;;;;;;;8.77;1.90;;;29.20;99.90;;;;;;4956927;28;20565;-74
2023/01/13 00:19:04;;;;;;;3.57;1.20;;;30.00;99.90;;;;;;4973487;28;20262;-72
2023/01/13 00:21:32;;;;;;;2.43;1.23;;;30.40;99.90;;;;;;4956438;28;20212;-70
2023/01/13 00:23:59;;;;;;;8.63;1.97;;;30.10;99.90;;;;;;4973839;28;20207;-72
2023/01/13 00:26:34;;;;;;;5.70;1.87;;;29.80;99.90;;;;;;4973568;28;20278;-69
2023/01/13 00:29:02;;;;;;;3.80;1.30;;;30.10;99.90;;;;;;4973197;28;20238;-68
2023/01/13 00:31:30;;;;;;;4.10;1.10;;;30.10;99.90;;;;;;4973877;28;20175;-71
2023/01/13 00:33:58;;;;;;;7.83;1.67;;;30.50;99.90;;;;;;4973565;28;20207;-76
2023/01/13 00:36:27;;;;;;;6.40;1.60;;;30.70;99.90;;;;;;4973609;28;20190;-70
2023/01/13 00:38:54;;;;;;;5.33;1.60;;;31.30;99.90;;;;;;4954722;29;20580;-73
2023/01/13 00:41:23;;;;;;;6.20;1.40;;;31.80;99.90;;;;;;4954143;29;20183;-73
2023/01/13 00:43:51;;;;;;;4.03;1.30;;;31.70;99.90;;;;;;4956597;28;20211;-70
2023/01/13 00:46:21;;;;;;;4.70;1.30;;;31.00;99.90;;;;;;4973586;28;20191;-74
2023/01/13 00:48:50;;;;;;;3.60;1.27;;;30.00;99.90;;;;;;4973132;28;20182;-70
2023/01/13 00:51:20;;;;;;;3.17;1.53;;;29.60;99.90;;;;;;4973256;28;20300;-70
2023/01/13 00:53:50;;;;;;;7.67;1.00;;;29.00;99.90;;;;;;4973795;28;20184;-73
2023/01/13 00:56:19;;;;;;;4.17;1.30;;;29.40;99.90;;;;;;4973202;28;20176;-75
2023/01/13 00:58:47;;;;;;;6.03;1.50;;;29.40;99.90;;;;;;4973346;28;20236;-69
2023/01/13 01:01:17;;;;;;;5.73;1.60;;;29.90;99.90;;;;;;4973474;28;20242;-69
2023/01/13 01:03:48;;;;;;;8.27;2.00;;;29.50;99.90;;;;;;4972957;28;20203;-73
2023/01/13 01:06:21;;;;;;;13.07;1.60;;;29.00;99.90;;;;;;4973538;28;20285;-70
2023/01/13 01:08:49;;;;;;;6.20;1.77;;;28.90;99.90;;;;;;4972942;28;20699;-69
2023/01/13 01:11:20;;;;;;;6.33;1.90;;;28.80;99.90;;;;;;4972378;28;20645;-71
2023/01/13 01:13:50;;;;;;;8.00;1.60;;;28.70;99.90;;;;;;4973242;28;20183;-69
2023/01/13 01:16:20;;;;;;;4.43;1.17;;;29.10;99.90;;;;;;4972825;28;20227;-70
2023/01/13 01:18:49;;;;;;;9.00;1.30;;;29.30;99.90;;;;;;4972659;28;20207;-76
2023/01/13 01:21:17;;;;;;;3.47;1.20;;;29.10;99.90;;;;;;4973080;28;20178;-67
2023/01/13 01:23:45;;;;;;;4.30;1.13;;;29.20;99.90;;;;;;4973034;28;20231;-67
2023/01/13 01:26:18;;;;;;;5.37;1.40;;;29.70;99.90;;;;;;4972525;28;20282;-67
2023/01/13 01:28:46;;;;;;;6.70;1.73;;;30.20;99.90;;;;;;4972773;28;20207;-67
2023/01/13 01:31:21;;;;;;;2.77;1.00;;;30.60;99.90;;;;;;4972503;28;20249;-74
2023/01/13 01:33:49;;;;;;;3.33;1.20;;;31.00;99.90;;;;;;4971927;28;20277;-74
2023/01/13 01:36:19;;;;;;;4.97;1.37;;;30.50;99.90;;;;;;4972772;28;20187;-67
2023/01/13 01:38:47;;;;;;;4.90;1.33;;;30.00;99.90;;;;;;4972371;28;20653;-68
2023/01/13 01:41:17;;;;;;;5.13;1.10;;;29.90;99.90;;;;;;4990482;28;20178;-68
2023/01/13 01:44:02;;;;;;;2.57;1.47;;;29.60;99.90;;;;;;4974552;28;20586;-69
2023/01/13 01:46:49;;;;;;;4.10;1.60;;;29.50;99.90;;;;;;4972949;28;20180;-72
2023/01/13 01:49:22;;;;;;;6.23;1.47;;;29.60;99.90;;;;;;4972083;28;20183;-69
2023/01/13 01:52:14;;;;;;;6.40;1.40;;;29.40;99.90;;;;;;4972741;28;20187;-69
2023/01/13 01:55:04;;;;;;;5.27;1.63;;;29.90;99.90;;;;;;4972827;28;20187;-70
2023/01/13 01:57:56;;;;;;;5.67;1.40;;;30.40;99.90;;;;;;4972467;28;20283;-73
2023/01/13 02:00:26;;;;;;;6.23;1.30;;;31.30;99.90;;;;;;4972945;28;20194;-69
2023/01/13 02:02:54;;;;;;;4.57;1.20;;;32.00;99.90;;;;;;4972048;28;20190;-69
2023/01/13 02:05:21;;;;;;;5.32;1.25;;;32.20;99.90;;;;;;4971812;28;20269;-69
2023/01/13 02:07:51;;;;;;;5.37;1.40;;;31.90;99.90;;;;;;4972759;28;20664;-70
2023/01/13 02:10:22;;;;;;;7.03;1.40;;;31.50;99.90;;;;;;4987595;28;20182;-70
2023/01/13 02:12:51;;;;;;;9.03;1.53;;;30.90;99.90;;;;;;4992095;28;20233;-73
2023/01/13 02:15:23;;;;;;;2.47;0.93;;;30.50;99.90;;;;;;4982682;28;20318;-70
2023/01/13 02:18:24;;;;;;;6.05;1.73;;;30.60;99.90;;;;;;4972315;28;20186;-68
2023/01/13 02:21:14;;;;;;;7.93;2.07;;;30.70;99.90;;;;;;4972755;28;20179;-70
2023/01/13 02:26:58;;;;;;;4.00;1.10;;;29.80;99.90;;;;;;4961701;28;20206;-69
2023/01/13 02:33:02;;;;;;;3.40;1.17;;;30.20;99.90;;;;;;4976277;28;20238;-69
2023/01/13 02:36:01;;;;;;;5.90;1.80;;;31.10;99.90;;;;;;4973317;28;20254;-70
2023/01/13 02:38:37;;;;;;;5.47;1.60;;;32.00;99.90;;;;;;4976273;28;20629;-74
2023/01/13 02:44:09;;;;;;;7.37;1.37;;;31.10;99.90;;;;;;4976201;28;20269;-70
2023/01/13 02:46:48;;;;;;;4.77;1.50;;;30.50;99.90;;;;;;4939454;29;20180;-73
2023/01/13 02:49:42;;;;;;;12.53;1.53;;;30.30;99.90;;;;;;4956701;29;20224;-68
2023/01/13 02:52:14;;;;;;;5.37;1.23;;;30.40;99.90;;;;;;4966835;28;20183;-68
2023/01/13 02:54:47;;;;;;;5.07;1.40;;;30.50;99.90;;;;;;4975127;28;20183;-68
2023/01/13 02:57:17;;;;;;;3.97;1.27;;;30.60;99.90;;;;;;4975973;28;20211;-69
2023/01/13 02:59:45;;;;;;;5.17;1.50;;;30.50;99.90;;;;;;4975759;28;20552;-69
2023/01/13 03:02:17;;;;;;;3.80;1.60;;;30.20;99.90;;;;;;4975377;28;20179;-68
2023/01/13 03:04:57;;;;;;;4.03;1.20;;;30.00;99.90;;;;;;4975430;28;20219;-69
2023/01/13 03:07:42;;;;;;;7.23;1.47;;;30.20;99.90;;;;;;4976347;28;20890;-68
2023/01/13 03:10:33;;;;;;;6.47;1.70;;;30.60;99.90;;;;;;4975146;28;20699;-69
2023/01/13 03:13:09;;;;;;;6.30;1.50;;;30.50;99.90;;;;;;4975582;28;20677;-69
2023/01/13 03:15:48;;;;;;;5.53;1.50;;;30.50;99.90;;;;;;4974899;28;20759;-69
2023/01/13 03:18:28;;;;;;;7.33;1.60;;;30.40;99.90;;;;;;4979391;28;20190;-71
2023/01/13 03:21:10;;;;;;;2.93;1.23;;;29.90;99.90;;;;;;4977240;28;20664;-68
2023/01/13 03:23:52;;;;;;;3.73;1.20;;;29.80;99.90;;;;;;4989634;28;20226;-69
2023/01/13 03:26:27;;;;;;;4.97;1.37;;;29.70;99.90;;;;;;4976346;28;20195;-72
2023/01/13 03:29:33;;;;;;;6.27;1.40;;;29.70;99.90;;;;;;4981238;28;20194;-69
2023/01/13 03:32:23;;;;;;;10.13;2.13;;;29.80;99.90;;;;;;4974637;28;20242;-71
2023/01/13 03:35:03;;;;;;;3.10;1.27;;;29.80;99.90;;;;;;4973581;28;20242;-68
2023/01/13 03:37:38;;;;;;;5.87;1.60;;;29.90;99.90;;;;;;4957613;28;20183;-68
2023/01/13 03:40:18;;;;;;;7.47;1.33;;;29.80;99.90;;;;;;4973811;28;20270;-71
2023/01/13 03:45:38;;;;;;;10.13;1.53;;;29.40;99.90;;;;;;4978873;28;20287;-68
2023/01/13 03:48:12;;;;;;;4.97;1.77;;;29.50;99.90;;;;;;4990800;28;20211;-68
2023/01/13 03:50:56;;;;;;;5.93;1.60;;;29.60;99.90;;;;;;4974735;28;20601;-69
2023/01/13 03:53:45;;;;;;;8.80;1.50;;;30.30;99.90;;;;;;4973219;28;20175;-69
2023/01/13 03:56:26;;;;;;;8.03;1.60;;;30.70;99.90;;;;;;4974069;28;20274;-68
2023/01/13 03:58:54;;;;;;;5.87;1.40;;;30.80;99.90;;;;;;4944735;28;20633;-69
2023/01/13 04:01:24;;;;;;;2.27;0.90;;;31.40;99.90;;;;;;4973972;28;20183;-69
2023/01/13 04:04:00;;;;;;;8.80;1.50;;;31.30;99.90;;;;;;4974342;28;20294;-69
2023/01/13 04:06:37;;;;;;;9.53;1.77;;;31.60;99.90;;;;;;4993453;28;20779;-72
2023/01/13 04:09:49;;;;;;;3.27;1.30;;;31.90;99.90;;;;;;4993329;28;20261;-69
2023/01/13 04:15:17;;;;;;;4.20;1.10;;;32.30;99.90;;;;;;4973875;28;20269;-70
2023/01/13 04:17:45;;;;;;;7.90;1.67;;;31.80;99.90;;;;;;4973426;28;20187;-69
2023/01/13 04:20:13;;;;;;;3.83;0.90;;;31.30;99.90;;;;;;4973809;28;20270;-73
2023/01/13 04:22:40;;;;;;;7.17;1.57;;;31.30;99.90;;;;;;4973401;28;20266;-69
2023/01/13 04:25:08;;;;;;;5.00;1.37;;;30.80;99.90;;;;;;4973112;28;20219;-69
2023/01/13 04:27:35;;;;;;;7.33;1.50;;;30.60;99.90;;;;;;4974099;28;20186;-70
2023/01/13 04:30:04;;;;;;;3.43;1.43;;;30.60;99.90;;;;;;4973707;28;20242;-73
2023/01/13 04:32:32;;;;;;;11.27;1.40;;;31.00;99.90;;;;;;4972677;28;20222;-69
2023/01/13 04:34:59;;;;;;;7.27;1.57;;;31.00;99.90;;;;;;4971497;28;20266;-69
2023/01/13 04:37:26;;;;;;;5.50;1.60;;;31.00;99.90;;;;;;4973326;28;20179;-73
2023/01/13 04:39:54;;;;;;;8.40;1.40;;;31.50;99.90;;;;;;4973588;28;20182;-72
2023/01/13 04:42:21;;;;;;;10.17;1.83;;;31.50;99.90;;;;;;4973833;28;20182;-70
2023/01/13 04:44:48;;;;;;;4.57;1.40;;;31.40;99.90;;;;;;4972992;28;20215;-70
2023/01/13 04:47:16;;;;;;;2.40;0.93;;;31.30;99.90;;;;;;4972818;28;20561;-69
2023/01/13 04:49:43;;;;;;;4.60;1.20;;;31.00;99.90;;;;;;4973733;28;20179;-72
2023/01/13 04:52:10;;;;;;;4.30;1.70;;;30.60;99.90;;;;;;4973365;28;20198;-70
2023/01/13 04:54:38;;;;;;;5.87;1.83;;;30.50;99.90;;;;;;4973005;28;20187;-68
2023/01/13 04:57:05;;;;;;;6.37;1.27;;;30.30;99.90;;;;;;4973421;28;20210;-71
2023/01/13 04:59:32;;;;;;;8.53;1.23;;;30.40;99.90;;;;;;4973690;28;20233;-69
2023/01/13 05:02:00;;;;;;;6.27;1.30;;;30.50;99.90;;;;;;4972808;28;20211;-69
2023/01/13 05:04:27;;;;;;;3.80;1.30;;;30.40;99.90;;;;;;4955676;28;20277;-68
2023/01/13 05:06:55;;;;;;;4.00;1.23;;;29.80;99.90;;;;;;4973556;28;20186;-68
2023/01/13 05:09:22;;;;;;;4.53;1.60;;;30.00;99.90;;;;;;4973050;28;20212;-70
2023/01/13 05:17:23;;;;;;;4.20;1.30;;;29.80;99.90;;;;;;4973329;28;20256;-69
2023/01/13 05:19:50;;;;;;;4.37;1.30;;;29.60;99.90;;;;;;4973489;28;20183;-71
2023/01/13 05:25:21;;;;;;;4.83;1.27;;;29.30;99.90;;;;;;4973337;28;20261;-72
2023/01/13 05:27:56;;;;;;;5.43;1.30;;;29.30;99.90;;;;;;4973173;28;20198;-68
2023/01/13 05:30:31;;;;;;;5.10;1.20;;;29.50;99.90;;;;;;4972596;28;20269;-67
2023/01/13 05:32:58;;;;;;;5.47;1.20;;;29.50;99.90;;;;;;4973096;28;20190;-71
2023/01/13 05:35:28;;;;;;;3.13;1.20;;;29.20;99.90;;;;;;4973043;28;20763;-68
2023/01/13 05:37:55;;;;;;;6.57;1.30;;;29.10;99.90;;;;;;4972667;28;20716;-68
2023/01/13 05:43:19;;;;;;;5.27;1.00;;;29.10;99.90;;;;;;4972949;28;20240;-67
2023/01/13 05:45:51;;;;;;;5.13;1.00;;;28.90;99.90;;;;;;4972333;28;20218;-68
2023/01/13 05:48:20;;;;;;;4.00;1.03;;;29.00;99.90;;;;;;4955570;28;20604;-68
2023/01/13 05:50:48;;;;;;;4.73;1.17;;;28.80;99.90;;;;;;4972727;28;20198;-67
2023/01/13 05:53:17;;;;;;;5.57;1.20;;;28.70;99.90;;;;;;4972358;28;20222;-68
2023/01/13 05:55:44;;;;;;;4.00;1.10;;;29.00;99.90;;;;;;4972860;28;20187;-68
2023/01/13 05:58:14;;;;;;;4.83;1.00;;;29.10;99.90;;;;;;4973722;28;20313;-68
2023/01/13 06:00:42;;;;;;;3.83;0.90;;;29.00;99.90;;;;;;4976419;28;20262;-68
2023/01/13 06:03:10;;;;;;;6.90;1.17;;;28.70;99.90;;;;;;4976651;28;20537;-67
2023/01/13 06:05:38;;;;;;;5.87;1.47;;;28.50;99.90;;;;;;4976554;28;20361;-67
2023/01/13 06:08:07;;;;;;;6.37;1.30;;;28.40;99.90;;;;;;4976043;28;20175;-68
2023/01/13 06:10:35;;;;;;;3.17;0.97;;;28.20;99.90;;;;;;4976324;28;20190;-68
2023/01/13 06:13:03;;;;;;;8.30;1.20;;;28.20;99.90;;;;;;4976549;28;20727;-68
2023/01/13 06:15:31;;;;;;;4.20;1.30;;;28.00;99.90;;;;;;4975852;28;20282;-67
2023/01/13 06:18:01;;;;;;;5.33;1.13;;;28.10;99.90;;;;;;4976370;28;20537;-67
2023/01/13 06:20:28;;;;;;;7.20;1.47;;;28.00;99.90;;;;;;4976357;28;20172;-67
2023/01/13 06:22:56;;;;;;;5.17;1.37;;;27.90;99.90;;;;;;4975974;28;20187;-67
2023/01/13 06:25:29;;;;;;;5.97;1.30;;;27.60;99.90;;;;;;4976232;28;20207;-68
2023/01/13 06:28:00;;;;;;;5.97;1.23;;;27.50;99.90;;;;;;4975994;28;20186;-69
2023/01/13 06:30:32;;;;;;;2.63;1.10;;;27.80;99.90;;;;;;4974747;28;20195;-70
2023/01/13 06:33:01;;;;;;;7.20;1.30;;;27.80;99.90;;;;;;4974024;28;20277;-68
2023/01/13 06:35:33;;;;;;;9.20;1.37;;;27.80;99.90;;;;;;4995718;28;20175;-69
2023/01/13 06:38:03;;;;;;;7.87;1.30;;;28.00;99.90;;;;;;4978937;28;20175;-69
2023/01/13 06:40:30;;;;;;;4.93;1.40;;;28.00;99.90;;;;;;4976143;28;20442;-68
2023/01/13 06:43:16;;;;;;;6.70;1.33;;;27.80;99.90;;;;;;4976180;28;20183;-68
2023/01/13 06:45:52;;;;;;;7.17;1.40;;;27.80;99.90;;;;;;4975447;28;20301;-68
2023/01/13 06:48:27;;;;;;;9.17;1.53;;;27.40;99.90;;;;;;4980415;28;20185;-72
2023/01/13 06:50:55;;;;;;;4.13;1.60;;;27.20;99.90;;;;;;4995011;28;20190;-69
2023/01/13 06:53:22;;;;;;;3.83;1.30;;;27.00;99.90;;;;;;4995028;28;20178;-68
2023/01/13 06:55:50;;;;;;;4.93;1.00;;;27.00;99.90;;;;;;4995079;28;20185;-69
2023/01/13 06:58:17;;;;;;;4.50;1.10;;;26.80;99.90;;;;;;4995087;28;20219;-69
2023/01/13 07:00:50;;;;;;;5.77;1.70;;;26.60;99.90;;;;;;4994601;28;20174;-70
2023/01/13 07:03:18;;;;;;;4.77;1.10;;;26.50;99.90;;;;;;4995302;28;20652;-70
2023/01/13 07:05:53;;;;;;;5.97;1.50;;;26.50;99.90;;;;;;4994563;28;20214;-68
2023/01/13 07:08:21;;;;;;;2.90;1.00;;;26.50;99.90;;;;;;4977501;28;20197;-71
2023/01/13 07:10:50;;;;;;;4.70;1.40;;;26.30;99.90;;;;;;4994525;28;20178;-71
2023/01/13 07:16:08;;;;;;;5.37;1.10;;;26.10;99.90;;;;;;4994681;28;20233;-68
2023/01/13 07:18:36;;;;;;;5.00;1.23;;;26.10;99.90;;;;;;4981673;28;20187;-68
2023/01/13 07:21:08;;;;;;;5.43;1.37;;;26.10;99.90;;;;;;4974877;28;20172;-69
2023/01/13 07:23:40;;;;;;;4.77;1.40;;;26.10;99.90;;;;;;4974953;28;20186;-69
2023/01/13 07:26:09;;;;;;;6.00;1.53;;;26.00;99.90;;;;;;4974986;28;20183;-69
2023/01/13 07:28:37;;;;;;;6.57;1.33;;;26.00;99.90;;;;;;4974418;28;20206;-68
2023/01/13 07:31:11;;;;;;;4.47;1.33;;;25.80;99.90;;;;;;4974984;28;20262;-68
2023/01/13 07:33:39;;;;;;;6.97;1.30;;;25.80;99.90;;;;;;4974690;28;20915;-71
2023/01/13 07:36:06;;;;;;;3.30;1.20;;;25.70;99.90;;;;;;4974454;28;20183;-69
2023/01/13 07:38:34;;;;;;;8.37;1.77;;;25.70;99.90;;;;;;4974923;28;20183;-68
2023/01/13 07:43:30;;;;;;;6.43;1.30;;;25.70;99.90;;;;;;4974989;28;20179;-69
2023/01/13 07:43:49;;;;;;;4.97;1.53;;;25.70;99.90;;;;;;4974272;28;20179;-68
2023/01/13 07:46:17;;;;;;;6.40;1.67;;;25.70;99.90;;;;;;4974687;28;20195;-68
2023/01/13 07:48:46;;;;;;;7.60;2.00;;;25.70;99.90;;;;;;4974844;28;20230;-69
2023/01/13 07:51:13;;;;;;;5.30;1.17;;;25.70;99.90;;;;;;4973991;28;20676;-71
2023/01/13 07:53:40;;;;;;;5.07;1.13;;;25.60;99.90;;;;;;4974721;28;20205;-71
2023/01/13 07:56:08;;;;;;;6.77;1.37;;;25.60;99.90;;;;;;4974181;28;20657;-69
2023/01/13 07:58:36;;;;;;;5.97;1.33;;;25.50;99.90;;;;;;4974285;28;20189;-69
2023/01/13 08:01:12;;;;;;;5.27;1.20;;;25.60;99.90;;;;;;4974649;28;20636;-72
2023/01/13 08:03:40;;;;;;;7.43;1.57;;;25.50;99.90;;;;;;4956904;28;20224;-71
2023/01/13 08:06:08;;;;;;;5.53;1.53;;;25.50;99.90;;;;;;4973908;28;20188;-69
2023/01/13 08:08:38;;;;;;;10.03;1.80;;;25.30;99.90;;;;;;4974487;28;20298;-69
2023/01/13 08:11:08;;;;;;;8.60;1.30;;;25.30;99.90;;;;;;4974312;28;20677;-72
2023/01/13 08:13:36;;;;;;;11.30;2.07;;;25.30;99.90;;;;;;4974008;28;20270;-68
2023/01/13 08:16:07;;;;;;;5.30;1.47;;;25.30;99.90;;;;;;4974312;28;20245;-69
2023/01/13 08:18:36;;;;;;;6.27;1.80;;;25.20;99.90;;;;;;4973900;28;20661;-70
2023/01/13 08:21:06;;;;;;;8.77;2.10;;;25.20;99.90;;;;;;4973154;28;20766;-69
2023/01/13 08:23:34;;;;;;;6.80;1.40;;;25.20;99.90;;;;;;4973633;28;20195;-71
2023/01/13 08:26:04;;;;;;;6.33;1.57;;;25.20;99.90;;;;;;4956855;28;20212;-69
2023/01/13 08:28:31;;;;;;;6.57;2.00;;;25.10;99.90;;;;;;4973621;28;20183;-70
2023/01/13 08:31:04;;;;;;;3.17;1.33;;;25.00;99.90;;;;;;4973834;28;20539;-69
2023/01/13 08:33:32;;;;;;;10.07;1.80;;;25.00;99.90;;;;;;4973974;28;20217;-70
2023/01/13 08:36:06;;;;;;;5.50;1.40;;;24.90;99.90;;;;;;4963488;28;20210;-68
2023/01/13 08:38:35;;;;;;;8.13;1.80;;;24.80;99.90;;;;;;4974300;28;20190;-68
2023/01/13 08:41:09;;;;;;;7.53;1.70;;;24.60;99.90;;;;;;4975178;28;20645;-72
2023/01/13 08:43:37;;;;;;;9.20;1.93;;;24.60;99.90;;;;;;4974488;28;20179;-68
2023/01/13 08:46:04;;;;;;;2.50;1.17;;;24.60;99.90;;;;;;4974930;28;20183;-68
2023/01/13 08:48:32;;;;;;;5.90;1.50;;;24.50;99.90;;;;;;4974833;28;20233;-71
2023/01/13 08:51:07;;;;;;;8.70;1.67;;;24.50;99.90;;;;;;4974326;28;20181;-70
2023/01/13 08:53:34;;;;;;;9.57;1.73;;;24.40;99.90;;;;;;4974064;28;20183;-68
2023/01/13 08:56:05;;;;;;;8.30;1.87;;;24.30;99.90;;;;;;4974360;28;20183;-68
2023/01/13 08:58:33;;;;;;;7.33;2.03;;;24.20;99.90;;;;;;4974691;28;20494;-67
2023/01/13 09:01:05;;;;;;;4.17;1.30;;;24.30;99.90;;;;;;4974754;28;20179;-68
2023/01/13 09:03:32;;;;;;;7.63;1.53;;;24.20;99.90;;;;;;4974770;28;20171;-69
2023/01/13 09:06:00;;;;;;;8.37;1.70;;;24.20;99.90;;;;;;4974531;28;20247;-67
2023/01/13 09:08:27;;;;;;;10.37;1.90;;;24.10;99.90;;;;;;4974443;28;20313;-71
2023/01/13 09:10:54;;;;;;;6.77;1.60;;;24.10;99.90;;;;;;4974157;28;20184;-69
2023/01/13 09:13:22;;;;;;;6.43;1.50;;;24.00;99.90;;;;;;4973674;28;20189;-69
2023/01/13 09:15:51;;;;;;;8.03;1.60;;;24.10;99.90;;;;;;4956783;28;20265;-71
2023/01/13 09:18:18;;;;;;;8.80;2.27;;;24.00;99.90;;;;;;4973956;28;20653;-69
2023/01/13 09:20:45;;;;;;;16.20;2.77;;;24.00;99.90;;;;;;4974307;28;20178;-69
2023/01/13 09:23:13;;;;;;;10.20;1.90;;;23.90;99.90;;;;;;4973986;28;20185;-70
2023/01/13 09:25:40;;;;;;;10.90;1.80;;;23.90;99.90;;;;;;4973956;28;20246;-69
2023/01/13 09:28:08;;;;;;;9.07;1.90;;;23.90;99.90;;;;;;4973709;28;20189;-69
2023/01/13 09:30:37;;;;;;;8.77;1.47;;;23.90;99.90;;;;;;4973894;28;20191;-70
2023/01/13 09:35:49;;;;;;;7.27;2.03;;;23.90;99.90;;;;;;4974115;28;20238;-69
2023/01/13 09:38:16;;;;;;;12.70;2.30;;;23.90;99.90;;;;;;4974160;28;20206;-69
2023/01/13 09:40:47;;;;;;;6.60;1.60;;;23.90;99.90;;;;;;4974286;28;20187;-71
2023/01/13 09:46:45;;;;;;;5.07;1.63;;;24.00;99.90;;;;;;4974132;28;20210;-72
2023/01/13 09:49:23;;;;;;;4.83;1.70;;;23.90;99.90;;;;;;4973900;28;20177;-71
2023/01/13 09:52:06;;;;;;;5.67;1.90;;;23.90;99.90;;;;;;4973576;28;20194;-69
2023/01/13 09:54:43;;;;;;;5.93;1.70;;;23.80;99.90;;;;;;4974123;28;20275;-70
2023/01/13 09:57:14;;;;;;;9.43;2.00;;;23.90;99.90;;;;;;4974140;28;20182;-68
2023/01/13 09:59:42;;;;;;;6.57;2.20;;;23.80;99.90;;;;;;4974161;28;20546;-69
2023/01/13 10:02:33;;;;;;;9.17;2.07;;;23.70;99.90;;;;;;4973701;28;20771;-68
2023/01/13 10:05:16;;;;;;;9.53;2.30;;;23.80;99.90;;;;;;4974548;28;20215;-69
2023/01/13 10:07:58;;;;;;;7.50;1.80;;;23.80;99.90;;;;;;4973799;28;20268;-69
2023/01/13 10:10:38;;;;;;;15.13;2.50;;;23.70;99.90;;;;;;4973569;28;21802;-72
2023/01/13 10:13:18;;;;;;;7.93;1.57;;;23.70;99.90;;;;;;4973668;28;20675;-71
2023/01/13 10:16:22;;;;;;;9.53;1.80;;;23.70;99.90;;;;;;4973240;28;20230;-73
2023/01/13 10:19:24;;;;;;;11.70;2.17;;;23.60;99.90;;;;;;4964725;28;20561;-70
2023/01/13 10:22:09;;;;;;;7.17;1.50;;;23.70;99.90;;;;;;4970789;28;20198;-69
2023/01/13 10:25:04;;;;;;;8.27;1.80;;;23.70;99.90;;;;;;4973602;28;20265;-68
2023/01/13 10:27:33;;;;;;;10.50;2.03;;;23.70;99.90;;;;;;4974156;28;20182;-72
2023/01/13 10:30:16;;;;;;;9.07;1.63;;;23.70;99.90;;;;;;4973034;28;20246;-71
2023/01/13 10:32:51;;;;;;;8.93;1.77;;;23.70;99.90;;;;;;4972778;28;20178;-69
2023/01/13 10:35:43;;;;;;;9.03;1.70;;;23.60;99.90;;;;;;4973148;28;20185;-71
2023/01/13 10:41:34;;;;;;;8.33;1.70;;;23.60;99.90;;;;;;4972454;28;20230;-69
2023/01/13 10:44:04;;;;;;;11.73;1.80;;;23.40;99.90;;;;;;4974022;28;20212;-68
2023/01/13 10:46:33;;;;;;;11.47;1.77;;;23.40;99.90;;;;;;4977273;28;20190;-68
2023/01/13 10:49:03;;;;;;;8.37;1.70;;;23.30;99.90;;;;;;4977094;28;20187;-68
2023/01/13 10:51:39;;;;;;;5.53;1.80;;;23.30;99.90;;;;;;4977244;28;20642;-69
2023/01/13 10:54:13;;;;;;;7.57;1.50;;;23.30;99.90;;;;;;4976742;28;20210;-72
2023/01/13 10:56:43;;;;;;;10.00;1.60;;;23.20;99.90;;;;;;4977439;28;20255;-68
2023/01/13 10:59:28;;;;;;;9.77;1.77;;;23.20;99.90;;;;;;4977240;28;20182;-72
2023/01/13 11:01:59;;;;;;;6.57;2.23;;;23.30;99.90;;;;;;4977208;28;20192;-69
2023/01/13 11:04:37;;;;;;;7.70;2.07;;;23.20;99.90;;;;;;4976451;28;20302;-69
2023/01/13 11:07:17;;;;;;;7.53;1.87;;;23.10;99.90;;;;;;4976912;28;20186;-69
2023/01/13 11:09:45;;;;;;;9.57;2.40;;;23.20;99.90;;;;;;4976731;28;20186;-69
2023/01/13 11:12:32;;;;;;;8.87;1.40;;;23.20;99.90;;;;;;4976438;28;20240;-70
2023/01/13 11:15:04;;;;;;;11.67;1.90;;;23.20;99.90;;;;;;4976434;28;20322;-69
2023/01/13 11:17:35;;;;;;;9.57;1.70;;;23.10;99.90;;;;;;4976960;28;20189;-71
2023/01/13 11:20:11;;;;;;;9.03;1.63;;;23.10;99.90;;;;;;4976735;28;20237;-71
2023/01/13 11:23:00;;;;;;;9.83;1.80;;;23.10;99.90;;;;;;4976428;28;20182;-71
2023/01/13 11:25:51;;;;;;;9.73;2.00;;;23.10;99.90;;;;;;4976703;28;20269;-70
2023/01/13 11:28:36;;;;;;;10.37;2.20;;;23.10;99.90;;;;;;4976246;28;20182;-72
2023/01/13 11:31:14;;;;;;;10.13;2.00;;;22.90;99.90;;;;;;4976305;28;20683;-69
2023/01/13 11:34:08;;;;;;;7.43;1.63;;;22.90;99.90;;;;;;4958671;28;20185;-68
2023/01/13 11:36:51;;;;;;;5.20;1.63;;;22.90;99.90;;;;;;4968525;28;20279;-69
2023/01/13 11:39:41;;;;;;;8.27;1.80;;;22.80;99.90;;;;;;4976240;28;20193;-69
2023/01/13 11:42:24;;;;;;;6.10;1.53;;;22.80;99.90;;;;;;4975820;28;20195;-68
2023/01/13 11:45:07;;;;;;;6.27;1.90;;;22.80;99.90;;;;;;4976196;28;20311;-68
2023/01/13 11:47:36;;;;;;;10.37;2.33;;;22.90;99.90;;;;;;4976085;28;20541;-69
2023/01/13 11:50:13;;;;;;;4.50;1.63;;;22.90;99.90;;;;;;4976251;28;20233;-69
2023/01/13 11:52:49;;;;;;;6.50;1.40;;;22.80;99.90;;;;;;4975963;28;20622;-69
2023/01/13 11:55:41;;;;;;;9.73;1.73;;;22.70;99.90;;;;;;4975083;28;20190;-69
2023/01/13 11:58:09;;;;;;;7.20;1.53;;;22.70;99.90;;;;;;4975562;28;20189;-69
2023/01/13 12:00:36;;;;;;;6.97;1.60;;;22.60;99.90;;;;;;4975349;28;20649;-70
2023/01/13 12:03:30;;;;;;;6.23;1.80;;;22.50;99.90;;;;;;4975170;28;20187;-72
2023/01/13 12:06:18;;;;;;;7.87;2.10;;;22.50;99.90;;;;;;4976219;28;20607;-72
2023/01/13 12:09:12;;;;;;;10.17;2.63;;;22.40;99.90;;;;;;4976024;28;20183;-70
2023/01/13 12:12:21;;;;;;;7.53;1.80;;;22.30;99.90;;;;;;4975413;28;20226;-70
2023/01/13 12:15:22;;;;;;;6.13;1.90;;;22.30;99.90;;;;;;4953690;29;20742;-69
2023/01/13 12:17:58;;;;;;;11.90;1.60;;;22.20;99.90;;;;;;4975404;28;20184;-70
2023/01/13 12:21:00;;;;;;;9.63;1.43;;;22.30;99.90;;;;;;4975046;28;20652;-70
2023/01/13 12:23:41;;;;;;;7.13;1.60;;;22.40;99.90;;;;;;4972663;28;20185;-67
2023/01/13 12:26:12;;;;;;;8.33;1.87;;;22.30;99.90;;;;;;4974903;28;20199;-67
2023/01/13 12:28:48;;;;;;;6.57;1.47;;;22.20;99.90;;;;;;4973983;28;20230;-69
2023/01/13 12:31:17;;;;;;;9.67;2.10;;;22.30;99.90;;;;;;4974690;28;20187;-69
2023/01/13 12:33:51;;;;;;;7.50;1.83;;;22.20;99.90;;;;;;4974434;28;20183;-67
2023/01/13 12:36:35;;;;;;;9.63;1.80;;;22.20;99.90;;;;;;4974673;28;20613;-67
2023/01/13 12:39:26;;;;;;;5.43;1.57;;;22.20;99.90;;;;;;4961870;28;20179;-73
2023/01/13 12:45:12;;;;;;;7.23;1.70;;;22.10;99.90;;;;;;4974501;28;20595;-70
2023/01/13 12:47:47;;;;;;;8.17;1.77;;;22.00;99.90;;;;;;4974189;28;20234;-70
2023/01/13 12:50:39;;;;;;;8.37;1.97;;;21.90;99.90;;;;;;4952764;28;20221;-69
2023/01/13 12:53:28;;;;;;;4.77;1.60;;;21.80;99.90;;;;;;4948895;29;20198;-73
2023/01/13 12:56:22;;;;;;;8.60;1.67;;;21.80;99.90;;;;;;4962691;28;20589;-70
2023/01/13 12:58:49;;;;;;;4.37;1.40;;;21.70;99.90;;;;;;4974155;28;20187;-71
2023/01/13 13:01:17;;;;;;;9.20;1.90;;;21.50;99.90;;;;;;4973966;28;20270;-70
2023/01/13 13:04:17;;;;;;;7.77;1.77;;;21.60;99.90;;;;;;4973636;28;20191;-69
2023/01/13 13:07:06;;;;;;;9.30;2.03;;;21.50;99.90;;;;;;4923682;28;20241;-73
2023/01/13 13:09:49;;;;;;;6.40;1.53;;;21.40;99.90;;;;;;4955216;29;20180;-70
2023/01/13 13:15:35;;;;;;;4.73;1.57;;;21.30;99.90;;;;;;4974105;28;20363;-70
2023/01/13 13:18:07;;;;;;;8.60;1.57;;;21.30;99.90;;;;;;4973611;28;20256;-70
2023/01/13 13:21:07;;;;;;;10.47;2.03;;;21.30;99.90;;;;;;4973544;28;20202;-70
2023/01/13 13:23:35;;;;;;;7.23;1.77;;;21.20;99.90;;;;;;4974090;28;20183;-72
2023/01/13 13:26:14;;;;;;;5.80;1.37;;;21.20;99.90;;;;;;4973723;28;20239;-70
2023/01/13 13:28:52;;;;;;;8.87;1.87;;;21.10;99.90;;;;;;4974277;28;20620;-72
2023/01/13 13:31:40;;;;;;;5.47;1.47;;;21.10;99.90;;;;;;4973659;28;20221;-72
2023/01/13 13:34:44;;;;;;;7.67;2.17;;;21.00;99.90;;;;;;4974137;28;20263;-71
2023/01/13 13:46:48;;;;;;;3.83;1.60;;;20.90;99.90;;;;;;4973936;28;20603;-69
2023/01/13 13:49:20;;;;;;;7.53;1.60;;;20.80;99.90;;;;;;4972939;28;20210;-72
2023/01/13 13:51:56;;;;;;;6.83;1.60;;;20.90;99.90;;;;;;4973884;28;20217;-71
2023/01/13 13:54:24;;;;;;;3.97;1.30;;;20.80;99.90;;;;;;4956886;28;20218;-70
2023/01/13 13:56:51;;;;;;;8.03;2.33;;;20.80;99.90;;;;;;4974184;28;20219;-69
2023/01/13 13:59:24;;;;;;;7.33;1.93;;;20.80;99.90;;;;;;4974322;28;20175;-69
2023/01/13 14:02:02;;;;;;;6.20;1.80;;;20.80;99.90;;;;;;4973817;28;20531;-69
2023/01/13 14:04:37;;;;;;;4.63;1.80;;;20.70;99.90;;;;;;4973999;28;20699;-69
2023/01/13 14:07:20;;;;;;;10.40;2.30;;;20.70;99.90;;;;;;4973851;28;20175;-72
2023/01/13 14:09:55;;;;;;;12.73;1.90;;;20.70;99.90;;;;;;4973901;28;20625;-73
2023/01/13 14:12:25;;;;;;;8.30;1.93;;;20.60;99.90;;;;;;4974275;28;20181;-69
2023/01/13 14:14:56;;;;;;;8.87;2.23;;;20.60;99.90;;;;;;4948918;29;20230;-71
2023/01/13 14:17:28;;;;;;;7.27;1.93;;;20.50;99.90;;;;;;4935640;29;20523;-72